sensor_id;sensor_type;location;lat;lon;timestamp;P1;durP1;ratioP1;P2;durP2;ratioP2
1467;SDS011;727;48.892;9.544;2023-08-12T00:00:35;6.90;;;5.33;;
1467;SDS011;727;48.892;9.544;2023-08-12T00:03:02;7.00;;;6.30;;
1467;SDS011;727;48.892;9.544;2023-08-12T00:05:33;6.00;;;5.57;;
1467;SDS011;727;48.892;9.544;2023-08-12T00:08:00;6.63;;;5.20;;
1467;SDS011;727;48.892;9.544;2023-08-12T00:10:29;7.93;;;5.73;;
1467;SDS011;727;48.892;9.544;2023-08-12T00:12:57;6.63;;;5.93;;
1467;SDS011;727;48.892;9.544;2023-08-12T00:15:24;5.67;;;5.27;;
1467;SDS011;727;48.892;9.544;2023-08-12T00:17:52;6.63;;;5.90;;
1467;SDS011;727;48.892;9.544;2023-08-12T00:20:19;9.93;;;6.17;;
1467;SDS011;727;48.892;9.544;2023-08-12T00:22:46;6.33;;;5.73;;
1467;SDS011;727;48.892;9.544;2023-08-12T00:25:13;6.43;;;5.93;;
1467;SDS011;727;48.892;9.544;2023-08-12T00:27:41;9.20;;;5.77;;
1467;SDS011;727;48.892;9.544;2023-08-12T00:30:08;8.63;;;5.83;;
1467;SDS011;727;48.892;9.544;2023-08-12T00:32:38;6.63;;;5.90;;
1467;SDS011;727;48.892;9.544;2023-08-12T00:35:07;6.13;;;5.53;;
1467;SDS011;727;48.892;9.544;2023-08-12T00:37:35;6.77;;;6.17;;
1467;SDS011;727;48.892;9.544;2023-08-12T00:40:02;6.30;;;5.70;;
1467;SDS011;727;48.892;9.544;2023-08-12T00:42:29;7.53;;;6.93;;
1467;SDS011;727;48.892;9.544;2023-08-12T00:44:58;8.10;;;6.70;;
1467;SDS011;727;48.892;9.544;2023-08-12T00:47:26;6.57;;;6.07;;
1467;SDS011;727;48.892;9.544;2023-08-12T00:49:54;6.73;;;6.13;;
1467;SDS011;727;48.892;9.544;2023-08-12T00:52:23;7.20;;;6.60;;
1467;SDS011;727;48.892;9.544;2023-08-12T00:54:51;6.30;;;5.70;;
1467;SDS011;727;48.892;9.544;2023-08-12T00:57:19;8.13;;;6.17;;
1467;SDS011;727;48.892;9.544;2023-08-12T00:59:46;6.30;;;5.80;;
1467;SDS011;727;48.892;9.544;2023-08-12T01:02:15;6.53;;;5.87;;
1467;SDS011;727;48.892;9.544;2023-08-12T01:04:42;6.47;;;5.70;;
1467;SDS011;727;48.892;9.544;2023-08-12T01:07:09;8.43;;;6.37;;
1467;SDS011;727;48.892;9.544;2023-08-12T01:09:36;7.10;;;5.97;;
1467;SDS011;727;48.892;9.544;2023-08-12T01:12:05;6.47;;;5.87;;
1467;SDS011;727;48.892;9.544;2023-08-12T01:14:38;7.20;;;6.50;;
1467;SDS011;727;48.892;9.544;2023-08-12T01:17:11;8.77;;;6.23;;
1467;SDS011;727;48.892;9.544;2023-08-12T01:19:42;6.70;;;6.03;;
1467;SDS011;727;48.892;9.544;2023-08-12T01:22:11;6.23;;;5.37;;
1467;SDS011;727;48.892;9.544;2023-08-12T01:24:40;9.47;;;5.67;;
1467;SDS011;727;48.892;9.544;2023-08-12T01:27:11;8.23;;;6.87;;
1467;SDS011;727;48.892;9.544;2023-08-12T01:29:39;5.97;;;5.47;;
1467;SDS011;727;48.892;9.544;2023-08-12T01:32:13;6.50;;;5.90;;
1467;SDS011;727;48.892;9.544;2023-08-12T01:34:50;6.10;;;5.50;;
1467;SDS011;727;48.892;9.544;2023-08-12T01:37:24;7.50;;;5.50;;
1467;SDS011;727;48.892;9.544;2023-08-12T01:39:56;6.53;;;6.03;;
1467;SDS011;727;48.892;9.544;2023-08-12T01:42:28;5.73;;;5.30;;
1467;SDS011;727;48.892;9.544;2023-08-12T01:44:57;7.90;;;7.10;;
1467;SDS011;727;48.892;9.544;2023-08-12T01:47:28;6.33;;;5.83;;
1467;SDS011;727;48.892;9.544;2023-08-12T01:49:55;6.40;;;5.80;;
1467;SDS011;727;48.892;9.544;2023-08-12T01:52:22;6.17;;;5.67;;
1467;SDS011;727;48.892;9.544;2023-08-12T01:54:50;6.50;;;5.90;;
1467;SDS011;727;48.892;9.544;2023-08-12T01:57:19;7.43;;;6.47;;
1467;SDS011;727;48.892;9.544;2023-08-12T01:59:46;7.00;;;6.20;;
1467;SDS011;727;48.892;9.544;2023-08-12T02:02:13;6.37;;;5.77;;
1467;SDS011;727;48.892;9.544;2023-08-12T02:04:40;7.43;;;6.07;;
1467;SDS011;727;48.892;9.544;2023-08-12T02:07:08;8.43;;;6.07;;
1467;SDS011;727;48.892;9.544;2023-08-12T02:09:35;6.00;;;5.40;;
1467;SDS011;727;48.892;9.544;2023-08-12T02:12:02;6.40;;;5.90;;
1467;SDS011;727;48.892;9.544;2023-08-12T02:14:31;6.83;;;6.23;;
1467;SDS011;727;48.892;9.544;2023-08-12T02:16:58;11.93;;;6.20;;
1467;SDS011;727;48.892;9.544;2023-08-12T02:19:25;8.80;;;7.10;;
1467;SDS011;727;48.892;9.544;2023-08-12T02:21:52;7.07;;;6.37;;
1467;SDS011;727;48.892;9.544;2023-08-12T02:24:19;6.57;;;6.03;;
1467;SDS011;727;48.892;9.544;2023-08-12T02:26:46;6.70;;;6.00;;
1467;SDS011;727;48.892;9.544;2023-08-12T02:29:13;13.00;;;7.23;;
1467;SDS011;727;48.892;9.544;2023-08-12T02:31:42;6.50;;;5.90;;
1467;SDS011;727;48.892;9.544;2023-08-12T02:34:09;5.93;;;5.40;;
1467;SDS011;727;48.892;9.544;2023-08-12T02:36:35;6.07;;;5.50;;
1467;SDS011;727;48.892;9.544;2023-08-12T02:39:02;8.30;;;6.03;;
1467;SDS011;727;48.892;9.544;2023-08-12T02:41:30;6.23;;;5.63;;
1467;SDS011;727;48.892;9.544;2023-08-12T02:43:57;6.00;;;5.50;;
1467;SDS011;727;48.892;9.544;2023-08-12T02:46:24;6.13;;;5.67;;
1467;SDS011;727;48.892;9.544;2023-08-12T02:48:54;6.17;;;5.40;;
1467;SDS011;727;48.892;9.544;2023-08-12T02:51:21;6.17;;;5.57;;
1467;SDS011;727;48.892;9.544;2023-08-12T02:53:49;6.00;;;5.40;;
1467;SDS011;727;48.892;9.544;2023-08-12T02:56:16;7.13;;;6.43;;
1467;SDS011;727;48.892;9.544;2023-08-12T02:58:43;5.93;;;5.47;;
1467;SDS011;727;48.892;9.544;2023-08-12T03:01:10;7.10;;;5.80;;
1467;SDS011;727;48.892;9.544;2023-08-12T03:03:36;7.20;;;5.90;;
1467;SDS011;727;48.892;9.544;2023-08-12T03:06:05;8.40;;;6.60;;
1467;SDS011;727;48.892;9.544;2023-08-12T03:08:32;7.30;;;6.70;;
1467;SDS011;727;48.892;9.544;2023-08-12T03:10:59;6.60;;;5.97;;
1467;SDS011;727;48.892;9.544;2023-08-12T03:13:26;6.57;;;5.97;;
1467;SDS011;727;48.892;9.544;2023-08-12T03:15:54;6.80;;;6.10;;
1467;SDS011;727;48.892;9.544;2023-08-12T03:18:21;6.70;;;6.10;;
1467;SDS011;727;48.892;9.544;2023-08-12T03:20:50;8.77;;;5.67;;
1467;SDS011;727;48.892;9.544;2023-08-12T03:23:18;5.87;;;5.37;;
1467;SDS011;727;48.892;9.544;2023-08-12T03:25:46;6.53;;;5.93;;
1467;SDS011;727;48.892;9.544;2023-08-12T03:28:13;5.87;;;5.40;;
1467;SDS011;727;48.892;9.544;2023-08-12T03:30:40;6.07;;;5.47;;
1467;SDS011;727;48.892;9.544;2023-08-12T03:33:07;10.53;;;9.40;;
1467;SDS011;727;48.892;9.544;2023-08-12T03:35:34;5.50;;;5.00;;
1467;SDS011;727;48.892;9.544;2023-08-12T03:38:01;6.60;;;5.93;;
1467;SDS011;727;48.892;9.544;2023-08-12T03:40:30;6.63;;;6.03;;
1467;SDS011;727;48.892;9.544;2023-08-12T03:42:57;10.30;;;6.40;;
1467;SDS011;727;48.892;9.544;2023-08-12T03:45:24;11.03;;;6.60;;
1467;SDS011;727;48.892;9.544;2023-08-12T03:47:51;6.73;;;6.03;;
1467;SDS011;727;48.892;9.544;2023-08-12T03:50:19;6.33;;;5.83;;
1467;SDS011;727;48.892;9.544;2023-08-12T03:52:46;6.67;;;6.10;;
1467;SDS011;727;48.892;9.544;2023-08-12T03:55:13;7.47;;;6.77;;
1467;SDS011;727;48.892;9.544;2023-08-12T03:57:41;6.10;;;5.60;;
1467;SDS011;727;48.892;9.544;2023-08-12T04:00:08;7.57;;;6.90;;
1467;SDS011;727;48.892;9.544;2023-08-12T04:02:36;12.90;;;5.83;;
1467;SDS011;727;48.892;9.544;2023-08-12T04:05:03;9.37;;;6.00;;
1467;SDS011;727;48.892;9.544;2023-08-12T04:07:32;6.93;;;6.27;;
1467;SDS011;727;48.892;9.544;2023-08-12T04:10:02;7.10;;;5.50;;
1467;SDS011;727;48.892;9.544;2023-08-12T04:12:29;11.10;;;5.87;;
1467;SDS011;727;48.892;9.544;2023-08-12T04:14:58;9.60;;;5.83;;
1467;SDS011;727;48.892;9.544;2023-08-12T04:17:27;10.40;;;5.97;;
1467;SDS011;727;48.892;9.544;2023-08-12T04:19:54;6.50;;;5.90;;
1467;SDS011;727;48.892;9.544;2023-08-12T04:22:21;6.40;;;5.80;;
1467;SDS011;727;48.892;9.544;2023-08-12T04:24:51;7.80;;;5.30;;
1467;SDS011;727;48.892;9.544;2023-08-12T04:27:18;6.60;;;5.90;;
1467;SDS011;727;48.892;9.544;2023-08-12T04:29:45;6.20;;;5.60;;
1467;SDS011;727;48.892;9.544;2023-08-12T04:32:14;6.27;;;5.67;;
1467;SDS011;727;48.892;9.544;2023-08-12T04:34:42;6.20;;;5.70;;
1467;SDS011;727;48.892;9.544;2023-08-12T04:37:10;7.43;;;5.90;;
1467;SDS011;727;48.892;9.544;2023-08-12T04:39:37;6.87;;;6.27;;
1467;SDS011;727;48.892;9.544;2023-08-12T04:42:05;6.23;;;5.30;;
1467;SDS011;727;48.892;9.544;2023-08-12T04:44:32;5.50;;;5.00;;
1467;SDS011;727;48.892;9.544;2023-08-12T04:46:59;5.63;;;5.13;;
1467;SDS011;727;48.892;9.544;2023-08-12T04:49:27;5.90;;;5.30;;
1467;SDS011;727;48.892;9.544;2023-08-12T04:51:54;5.93;;;5.40;;
1467;SDS011;727;48.892;9.544;2023-08-12T04:54:21;5.77;;;5.20;;
1467;SDS011;727;48.892;9.544;2023-08-12T04:56:48;16.47;;;5.57;;
1467;SDS011;727;48.892;9.544;2023-08-12T04:59:15;6.27;;;5.67;;
1467;SDS011;727;48.892;9.544;2023-08-12T05:01:42;6.10;;;5.20;;
1467;SDS011;727;48.892;9.544;2023-08-12T05:04:08;8.00;;;5.67;;
1467;SDS011;727;48.892;9.544;2023-08-12T05:06:37;5.70;;;5.20;;
1467;SDS011;727;48.892;9.544;2023-08-12T05:09:04;6.03;;;5.43;;
1467;SDS011;727;48.892;9.544;2023-08-12T05:11:31;10.20;;;5.53;;
1467;SDS011;727;48.892;9.544;2023-08-12T05:13:58;5.57;;;5.17;;
1467;SDS011;727;48.892;9.544;2023-08-12T05:16:25;8.20;;;7.10;;
1467;SDS011;727;48.892;9.544;2023-08-12T05:18:54;6.40;;;5.87;;
1467;SDS011;727;48.892;9.544;2023-08-12T05:21:21;5.27;;;4.80;;
1467;SDS011;727;48.892;9.544;2023-08-12T05:23:49;6.20;;;5.60;;
1467;SDS011;727;48.892;9.544;2023-08-12T05:26:16;6.20;;;5.60;;
1467;SDS011;727;48.892;9.544;2023-08-12T05:28:43;6.10;;;4.93;;
1467;SDS011;727;48.892;9.544;2023-08-12T05:31:10;5.07;;;4.57;;
1467;SDS011;727;48.892;9.544;2023-08-12T05:33:36;5.77;;;5.23;;
1467;SDS011;727;48.892;9.544;2023-08-12T05:36:03;6.30;;;5.80;;
1467;SDS011;727;48.892;9.544;2023-08-12T05:38:30;5.60;;;5.10;;
1467;SDS011;727;48.892;9.544;2023-08-12T05:40:58;5.53;;;4.47;;
1467;SDS011;727;48.892;9.544;2023-08-12T05:43:26;6.40;;;5.80;;
1467;SDS011;727;48.892;9.544;2023-08-12T05:45:52;5.97;;;5.40;;
1467;SDS011;727;48.892;9.544;2023-08-12T05:48:19;6.40;;;5.80;;
1467;SDS011;727;48.892;9.544;2023-08-12T05:50:46;7.50;;;6.30;;
1467;SDS011;727;48.892;9.544;2023-08-12T05:53:13;8.57;;;5.93;;
1467;SDS011;727;48.892;9.544;2023-08-12T05:55:40;6.13;;;5.40;;
1467;SDS011;727;48.892;9.544;2023-08-12T05:58:08;9.43;;;5.80;;
1467;SDS011;727;48.892;9.544;2023-08-12T06:00:35;6.63;;;6.00;;
1467;SDS011;727;48.892;9.544;2023-08-12T06:03:02;6.43;;;5.80;;
1467;SDS011;727;48.892;9.544;2023-08-12T06:05:29;6.07;;;5.57;;
1467;SDS011;727;48.892;9.544;2023-08-12T06:07:56;5.83;;;5.43;;
1467;SDS011;727;48.892;9.544;2023-08-12T06:10:23;5.37;;;4.90;;
1467;SDS011;727;48.892;9.544;2023-08-12T06:12:50;7.47;;;5.87;;
1467;SDS011;727;48.892;9.544;2023-08-12T06:15:18;7.47;;;6.77;;
1467;SDS011;727;48.892;9.544;2023-08-12T06:17:45;8.47;;;7.67;;
1467;SDS011;727;48.892;9.544;2023-08-12T06:20:14;6.43;;;5.83;;
1467;SDS011;727;48.892;9.544;2023-08-12T06:22:42;7.10;;;6.40;;
1467;SDS011;727;48.892;9.544;2023-08-12T06:25:08;8.27;;;6.17;;
1467;SDS011;727;48.892;9.544;2023-08-12T06:27:35;7.20;;;6.50;;
1467;SDS011;727;48.892;9.544;2023-08-12T06:30:03;7.23;;;6.50;;
1467;SDS011;727;48.892;9.544;2023-08-12T06:32:33;6.73;;;6.13;;
1467;SDS011;727;48.892;9.544;2023-08-12T06:35:00;9.00;;;6.90;;
1467;SDS011;727;48.892;9.544;2023-08-12T06:37:26;6.80;;;5.77;;
1467;SDS011;727;48.892;9.544;2023-08-12T06:39:53;7.00;;;6.40;;
1467;SDS011;727;48.892;9.544;2023-08-12T06:42:20;7.30;;;6.57;;
1467;SDS011;727;48.892;9.544;2023-08-12T06:44:49;9.43;;;7.33;;
1467;SDS011;727;48.892;9.544;2023-08-12T06:47:21;7.23;;;6.53;;
1467;SDS011;727;48.892;9.544;2023-08-12T06:49:49;10.13;;;6.57;;
1467;SDS011;727;48.892;9.544;2023-08-12T06:52:23;9.90;;;6.80;;
1467;SDS011;727;48.892;9.544;2023-08-12T07:03:08;8.30;;;6.93;;
1467;SDS011;727;48.892;9.544;2023-08-12T07:11:56;6.87;;;6.27;;
1467;SDS011;727;48.892;9.544;2023-08-12T07:14:23;5.67;;;5.27;;
1467;SDS011;727;48.892;9.544;2023-08-12T07:16:50;5.93;;;5.33;;
1467;SDS011;727;48.892;9.544;2023-08-12T07:19:16;6.00;;;5.40;;
1467;SDS011;727;48.892;9.544;2023-08-12T07:21:43;5.93;;;5.47;;
1467;SDS011;727;48.892;9.544;2023-08-12T07:24:10;6.40;;;5.43;;
1467;SDS011;727;48.892;9.544;2023-08-12T07:26:37;6.27;;;5.67;;
1467;SDS011;727;48.892;9.544;2023-08-12T07:29:05;7.20;;;5.50;;
1467;SDS011;727;48.892;9.544;2023-08-12T07:31:32;6.50;;;5.90;;
1467;SDS011;727;48.892;9.544;2023-08-12T07:34:03;6.10;;;5.60;;
1467;SDS011;727;48.892;9.544;2023-08-12T07:36:30;7.20;;;6.60;;
1467;SDS011;727;48.892;9.544;2023-08-12T07:38:57;8.10;;;5.83;;
1467;SDS011;727;48.892;9.544;2023-08-12T07:41:25;9.57;;;6.60;;
1467;SDS011;727;48.892;9.544;2023-08-12T07:43:53;6.67;;;6.07;;
1467;SDS011;727;48.892;9.544;2023-08-12T07:46:21;8.47;;;5.70;;
1467;SDS011;727;48.892;9.544;2023-08-12T07:48:48;8.37;;;7.47;;
1467;SDS011;727;48.892;9.544;2023-08-12T07:51:15;7.70;;;6.80;;
1467;SDS011;727;48.892;9.544;2023-08-12T07:53:42;7.00;;;6.30;;
1467;SDS011;727;48.892;9.544;2023-08-12T07:56:08;6.17;;;5.50;;
1467;SDS011;727;48.892;9.544;2023-08-12T07:58:35;7.10;;;5.10;;
1467;SDS011;727;48.892;9.544;2023-08-12T08:01:18;6.80;;;5.30;;
1467;SDS011;727;48.892;9.544;2023-08-12T08:03:46;7.10;;;5.33;;
1467;SDS011;727;48.892;9.544;2023-08-12T08:06:13;5.60;;;5.10;;
1467;SDS011;727;48.892;9.544;2023-08-12T08:08:47;6.77;;;5.40;;
1467;SDS011;727;48.892;9.544;2023-08-12T08:11:14;6.87;;;5.23;;
1467;SDS011;727;48.892;9.544;2023-08-12T08:13:44;6.20;;;5.70;;
1467;SDS011;727;48.892;9.544;2023-08-12T08:16:11;8.70;;;5.17;;
1467;SDS011;727;48.892;9.544;2023-08-12T08:18:40;5.40;;;4.90;;
1467;SDS011;727;48.892;9.544;2023-08-12T08:21:08;7.00;;;5.80;;
1467;SDS011;727;48.892;9.544;2023-08-12T08:23:35;6.10;;;5.30;;
1467;SDS011;727;48.892;9.544;2023-08-12T08:26:01;6.63;;;5.77;;
1467;SDS011;727;48.892;9.544;2023-08-12T08:28:28;6.10;;;5.20;;
1467;SDS011;727;48.892;9.544;2023-08-12T08:30:55;6.20;;;5.40;;
1467;SDS011;727;48.892;9.544;2023-08-12T08:33:22;7.87;;;5.83;;
1467;SDS011;727;48.892;9.544;2023-08-12T08:35:49;5.23;;;4.73;;
1467;SDS011;727;48.892;9.544;2023-08-12T08:38:17;5.50;;;5.00;;
1467;SDS011;727;48.892;9.544;2023-08-12T08:40:44;5.50;;;5.10;;
1467;SDS011;727;48.892;9.544;2023-08-12T08:43:11;7.27;;;5.30;;
1467;SDS011;727;48.892;9.544;2023-08-12T08:45:41;5.97;;;5.33;;
1467;SDS011;727;48.892;9.544;2023-08-12T08:48:10;5.53;;;5.03;;
1467;SDS011;727;48.892;9.544;2023-08-12T08:50:38;6.23;;;5.73;;
1467;SDS011;727;48.892;9.544;2023-08-12T08:53:07;5.20;;;4.80;;
1467;SDS011;727;48.892;9.544;2023-08-12T08:55:36;6.57;;;5.97;;
1467;SDS011;727;48.892;9.544;2023-08-12T08:58:04;4.67;;;4.37;;
1467;SDS011;727;48.892;9.544;2023-08-12T09:00:37;5.07;;;4.60;;
1467;SDS011;727;48.892;9.544;2023-08-12T09:03:05;5.80;;;5.30;;
1467;SDS011;727;48.892;9.544;2023-08-12T09:05:33;5.07;;;4.57;;
1467;SDS011;727;48.892;9.544;2023-08-12T09:08:03;5.90;;;4.77;;
1467;SDS011;727;48.892;9.544;2023-08-12T09:10:37;5.23;;;4.73;;
1467;SDS011;727;48.892;9.544;2023-08-12T09:13:06;8.00;;;4.97;;
1467;SDS011;727;48.892;9.544;2023-08-12T09:15:34;5.20;;;4.67;;
1467;SDS011;727;48.892;9.544;2023-08-12T09:18:01;5.03;;;4.63;;
1467;SDS011;727;48.892;9.544;2023-08-12T09:20:30;5.53;;;4.80;;
1467;SDS011;727;48.892;9.544;2023-08-12T09:22:58;4.43;;;4.03;;
1467;SDS011;727;48.892;9.544;2023-08-12T09:25:25;5.17;;;4.67;;
1467;SDS011;727;48.892;9.544;2023-08-12T09:27:58;5.87;;;4.27;;
1467;SDS011;727;48.892;9.544;2023-08-12T09:30:27;5.83;;;5.33;;
1467;SDS011;727;48.892;9.544;2023-08-12T09:32:58;5.83;;;5.33;;
1467;SDS011;727;48.892;9.544;2023-08-12T09:35:31;6.13;;;5.43;;
1467;SDS011;727;48.892;9.544;2023-08-12T09:37:58;7.87;;;4.57;;
1467;SDS011;727;48.892;9.544;2023-08-12T09:40:27;6.57;;;4.67;;
1467;SDS011;727;48.892;9.544;2023-08-12T09:42:56;4.73;;;4.43;;
1467;SDS011;727;48.892;9.544;2023-08-12T09:45:23;5.17;;;4.67;;
1467;SDS011;727;48.892;9.544;2023-08-12T09:47:51;4.80;;;4.40;;
1467;SDS011;727;48.892;9.544;2023-08-12T09:50:19;4.30;;;4.00;;
1467;SDS011;727;48.892;9.544;2023-08-12T09:52:48;5.40;;;4.87;;
1467;SDS011;727;48.892;9.544;2023-08-12T09:55:16;5.73;;;5.33;;
1467;SDS011;727;48.892;9.544;2023-08-12T09:57:44;4.37;;;4.00;;
1467;SDS011;727;48.892;9.544;2023-08-12T10:00:16;4.90;;;4.40;;
1467;SDS011;727;48.892;9.544;2023-08-12T10:02:44;5.80;;;4.60;;
1467;SDS011;727;48.892;9.544;2023-08-12T10:05:12;6.57;;;4.20;;
1467;SDS011;727;48.892;9.544;2023-08-12T10:07:42;5.00;;;4.50;;
1467;SDS011;727;48.892;9.544;2023-08-12T10:10:12;4.33;;;4.03;;
1467;SDS011;727;48.892;9.544;2023-08-12T10:12:39;8.90;;;3.93;;
1467;SDS011;727;48.892;9.544;2023-08-12T10:15:07;5.67;;;5.07;;
1467;SDS011;727;48.892;9.544;2023-08-12T10:17:37;4.60;;;3.70;;
1467;SDS011;727;48.892;9.544;2023-08-12T10:20:06;4.40;;;3.77;;
1467;SDS011;727;48.892;9.544;2023-08-12T10:22:34;5.10;;;4.60;;
1467;SDS011;727;48.892;9.544;2023-08-12T10:25:02;5.07;;;4.17;;
1467;SDS011;727;48.892;9.544;2023-08-12T10:27:30;5.20;;;4.60;;
1467;SDS011;727;48.892;9.544;2023-08-12T10:29:57;9.10;;;4.30;;
1467;SDS011;727;48.892;9.544;2023-08-12T10:32:24;4.03;;;3.73;;
1467;SDS011;727;48.892;9.544;2023-08-12T10:34:56;4.33;;;3.93;;
1467;SDS011;727;48.892;9.544;2023-08-12T10:37:24;4.73;;;4.43;;
1467;SDS011;727;48.892;9.544;2023-08-12T10:39:52;4.43;;;4.03;;
1467;SDS011;727;48.892;9.544;2023-08-12T10:45:09;5.27;;;4.20;;
1467;SDS011;727;48.892;9.544;2023-08-12T10:47:40;5.23;;;3.60;;
1467;SDS011;727;48.892;9.544;2023-08-12T10:50:17;4.17;;;3.87;;
1467;SDS011;727;48.892;9.544;2023-08-12T10:52:45;6.47;;;4.10;;
1467;SDS011;727;48.892;9.544;2023-08-12T10:55:19;4.40;;;4.00;;
1467;SDS011;727;48.892;9.544;2023-08-12T10:57:47;4.70;;;4.30;;
1467;SDS011;727;48.892;9.544;2023-08-12T11:00:15;4.73;;;3.80;;
1467;SDS011;727;48.892;9.544;2023-08-12T11:02:49;5.47;;;4.20;;
1467;SDS011;727;48.892;9.544;2023-08-12T11:05:18;4.33;;;4.03;;
1467;SDS011;727;48.892;9.544;2023-08-12T11:07:47;4.67;;;4.27;;
1467;SDS011;727;48.892;9.544;2023-08-12T11:10:15;4.63;;;3.60;;
1467;SDS011;727;48.892;9.544;2023-08-12T11:12:48;4.80;;;3.70;;
1467;SDS011;727;48.892;9.544;2023-08-12T11:15:28;3.90;;;3.50;;
1467;SDS011;727;48.892;9.544;2023-08-12T11:17:57;5.27;;;4.20;;
1467;SDS011;727;48.892;9.544;2023-08-12T11:20:26;5.27;;;3.97;;
1467;SDS011;727;48.892;9.544;2023-08-12T11:22:54;4.40;;;4.10;;
1467;SDS011;727;48.892;9.544;2023-08-12T11:25:23;5.17;;;4.67;;
1467;SDS011;727;48.892;9.544;2023-08-12T11:27:50;4.53;;;4.17;;
1467;SDS011;727;48.892;9.544;2023-08-12T11:30:18;3.80;;;3.50;;
1467;SDS011;727;48.892;9.544;2023-08-12T11:32:47;5.00;;;4.10;;
1467;SDS011;727;48.892;9.544;2023-08-12T11:35:15;4.70;;;4.30;;
1467;SDS011;727;48.892;9.544;2023-08-12T11:37:45;4.40;;;3.80;;
1467;SDS011;727;48.892;9.544;2023-08-12T11:40:14;3.37;;;3.17;;
1467;SDS011;727;48.892;9.544;2023-08-12T11:42:42;6.13;;;3.30;;
1467;SDS011;727;48.892;9.544;2023-08-12T11:45:10;4.27;;;3.90;;
1467;SDS011;727;48.892;9.544;2023-08-12T11:47:39;3.80;;;3.50;;
1467;SDS011;727;48.892;9.544;2023-08-12T11:50:07;3.43;;;3.13;;
1467;SDS011;727;48.892;9.544;2023-08-12T11:52:35;3.90;;;3.30;;
1467;SDS011;727;48.892;9.544;2023-08-12T11:55:04;6.27;;;4.10;;
1467;SDS011;727;48.892;9.544;2023-08-12T11:57:32;11.50;;;4.67;;
1467;SDS011;727;48.892;9.544;2023-08-12T12:00:00;3.80;;;2.87;;
1467;SDS011;727;48.892;9.544;2023-08-12T12:02:30;3.90;;;3.63;;
1467;SDS011;727;48.892;9.544;2023-08-12T12:04:57;4.00;;;3.60;;
1467;SDS011;727;48.892;9.544;2023-08-12T12:07:24;3.53;;;3.17;;
1467;SDS011;727;48.892;9.544;2023-08-12T12:09:52;4.33;;;3.30;;
1467;SDS011;727;48.892;9.544;2023-08-12T12:12:23;3.63;;;3.33;;
1467;SDS011;727;48.892;9.544;2023-08-12T12:14:50;3.60;;;3.30;;
1467;SDS011;727;48.892;9.544;2023-08-12T12:17:20;5.10;;;3.13;;
1467;SDS011;727;48.892;9.544;2023-08-12T12:19:51;3.50;;;3.20;;
1467;SDS011;727;48.892;9.544;2023-08-12T12:22:19;4.00;;;3.70;;
1467;SDS011;727;48.892;9.544;2023-08-12T12:24:46;3.63;;;3.33;;
1467;SDS011;727;48.892;9.544;2023-08-12T12:27:13;5.70;;;3.30;;
1467;SDS011;727;48.892;9.544;2023-08-12T12:29:41;4.23;;;3.83;;
1467;SDS011;727;48.892;9.544;2023-08-12T12:32:08;4.60;;;3.90;;
1467;SDS011;727;48.892;9.544;2023-08-12T12:34:36;6.40;;;4.33;;
1467;SDS011;727;48.892;9.544;2023-08-12T12:37:02;5.07;;;4.57;;
1467;SDS011;727;48.892;9.544;2023-08-12T12:39:29;15.73;;;6.80;;
1467;SDS011;727;48.892;9.544;2023-08-12T12:41:56;12.73;;;8.20;;
1467;SDS011;727;48.892;9.544;2023-08-12T12:44:24;12.70;;;8.40;;
1467;SDS011;727;48.892;9.544;2023-08-12T12:46:53;9.87;;;8.27;;
1467;SDS011;727;48.892;9.544;2023-08-12T12:49:19;9.00;;;6.00;;
1467;SDS011;727;48.892;9.544;2023-08-12T12:51:46;9.20;;;6.70;;
1467;SDS011;727;48.892;9.544;2023-08-12T12:54:13;9.70;;;7.50;;
1467;SDS011;727;48.892;9.544;2023-08-12T12:56:40;9.97;;;6.43;;
1467;SDS011;727;48.892;9.544;2023-08-12T12:59:07;12.87;;;7.40;;
1467;SDS011;727;48.892;9.544;2023-08-12T13:01:34;8.13;;;6.90;;
1467;SDS011;727;48.892;9.544;2023-08-12T13:04:03;10.23;;;6.83;;
1467;SDS011;727;48.892;9.544;2023-08-12T13:06:29;7.50;;;6.80;;
1467;SDS011;727;48.892;9.544;2023-08-12T13:08:56;11.07;;;6.63;;
1467;SDS011;727;48.892;9.544;2023-08-12T13:11:23;7.70;;;6.60;;
1467;SDS011;727;48.892;9.544;2023-08-12T13:13:50;8.13;;;6.70;;
1467;SDS011;727;48.892;9.544;2023-08-12T13:16:16;8.33;;;7.10;;
1467;SDS011;727;48.892;9.544;2023-08-12T13:18:43;7.47;;;6.30;;
1467;SDS011;727;48.892;9.544;2023-08-12T13:21:11;10.90;;;6.87;;
1467;SDS011;727;48.892;9.544;2023-08-12T13:23:39;8.80;;;7.03;;
1467;SDS011;727;48.892;9.544;2023-08-12T13:26:06;7.50;;;6.40;;
1467;SDS011;727;48.892;9.544;2023-08-12T13:28:33;8.33;;;7.07;;
1467;SDS011;727;48.892;9.544;2023-08-12T13:31:00;7.63;;;6.83;;
1467;SDS011;727;48.892;9.544;2023-08-12T13:33:26;7.90;;;7.10;;
1467;SDS011;727;48.892;9.544;2023-08-12T13:35:53;7.90;;;5.93;;
1467;SDS011;727;48.892;9.544;2023-08-12T13:38:21;8.60;;;6.70;;
1467;SDS011;727;48.892;9.544;2023-08-12T13:40:48;7.67;;;6.43;;
1467;SDS011;727;48.892;9.544;2023-08-12T13:43:15;7.77;;;7.00;;
1467;SDS011;727;48.892;9.544;2023-08-12T13:45:42;7.27;;;6.43;;
1467;SDS011;727;48.892;9.544;2023-08-12T13:48:09;8.00;;;6.93;;
1467;SDS011;727;48.892;9.544;2023-08-12T13:50:36;8.13;;;7.30;;
1467;SDS011;727;48.892;9.544;2023-08-12T13:53:03;8.73;;;7.83;;
1467;SDS011;727;48.892;9.544;2023-08-12T13:55:31;7.87;;;7.17;;
1467;SDS011;727;48.892;9.544;2023-08-12T13:57:58;7.27;;;6.53;;
1467;SDS011;727;48.892;9.544;2023-08-12T14:00:25;9.77;;;6.83;;
1467;SDS011;727;48.892;9.544;2023-08-12T14:02:51;14.17;;;7.23;;
1467;SDS011;727;48.892;9.544;2023-08-12T14:05:18;8.77;;;6.90;;
1467;SDS011;727;48.892;9.544;2023-08-12T14:07:45;7.47;;;6.77;;
1467;SDS011;727;48.892;9.544;2023-08-12T14:10:12;8.83;;;8.03;;
1467;SDS011;727;48.892;9.544;2023-08-12T14:12:40;8.90;;;8.00;;
1467;SDS011;727;48.892;9.544;2023-08-12T14:15:07;10.60;;;7.67;;
1467;SDS011;727;48.892;9.544;2023-08-12T14:17:34;7.60;;;7.00;;
1467;SDS011;727;48.892;9.544;2023-08-12T14:20:01;8.63;;;7.60;;
1467;SDS011;727;48.892;9.544;2023-08-12T14:22:30;9.83;;;7.27;;
1467;SDS011;727;48.892;9.544;2023-08-12T14:24:57;9.43;;;8.30;;
1467;SDS011;727;48.892;9.544;2023-08-12T14:27:24;7.57;;;6.83;;
1467;SDS011;727;48.892;9.544;2023-08-12T14:29:52;7.93;;;7.13;;
1467;SDS011;727;48.892;9.544;2023-08-12T14:32:18;6.80;;;6.00;;
1467;SDS011;727;48.892;9.544;2023-08-12T14:34:45;10.50;;;5.80;;
1467;SDS011;727;48.892;9.544;2023-08-12T14:37:12;5.50;;;4.87;;
1467;SDS011;727;48.892;9.544;2023-08-12T14:39:39;7.07;;;5.50;;
1467;SDS011;727;48.892;9.544;2023-08-12T14:42:06;5.27;;;4.77;;
1467;SDS011;727;48.892;9.544;2023-08-12T14:44:33;6.60;;;5.20;;
1467;SDS011;727;48.892;9.544;2023-08-12T14:47:02;7.23;;;5.57;;
1467;SDS011;727;48.892;9.544;2023-08-12T14:49:29;5.63;;;5.13;;
1467;SDS011;727;48.892;9.544;2023-08-12T14:51:56;5.53;;;5.03;;
1467;SDS011;727;48.892;9.544;2023-08-12T14:54:23;5.50;;;5.00;;
1467;SDS011;727;48.892;9.544;2023-08-12T14:56:50;8.27;;;4.90;;
1467;SDS011;727;48.892;9.544;2023-08-12T14:59:16;5.33;;;4.60;;
1467;SDS011;727;48.892;9.544;2023-08-12T15:01:43;3.90;;;3.60;;
1467;SDS011;727;48.892;9.544;2023-08-12T15:04:11;4.10;;;3.80;;
1467;SDS011;727;48.892;9.544;2023-08-12T15:06:38;4.50;;;4.13;;
1467;SDS011;727;48.892;9.544;2023-08-12T15:09:05;5.23;;;4.73;;
1467;SDS011;727;48.892;9.544;2023-08-12T15:11:34;4.90;;;4.33;;
1467;SDS011;727;48.892;9.544;2023-08-12T15:14:01;5.20;;;4.70;;
1467;SDS011;727;48.892;9.544;2023-08-12T15:16:27;8.73;;;4.13;;
1467;SDS011;727;48.892;9.544;2023-08-12T15:18:54;4.97;;;4.40;;
1467;SDS011;727;48.892;9.544;2023-08-12T15:21:22;5.00;;;4.17;;
1467;SDS011;727;48.892;9.544;2023-08-12T15:23:49;7.83;;;4.93;;
1467;SDS011;727;48.892;9.544;2023-08-12T15:26:15;6.63;;;4.93;;
1467;SDS011;727;48.892;9.544;2023-08-12T15:28:42;7.43;;;4.50;;
1467;SDS011;727;48.892;9.544;2023-08-12T15:31:10;5.97;;;5.10;;
1467;SDS011;727;48.892;9.544;2023-08-12T15:33:39;6.47;;;4.40;;
1467;SDS011;727;48.892;9.544;2023-08-12T15:36:06;11.27;;;7.73;;
1467;SDS011;727;48.892;9.544;2023-08-12T15:38:35;6.00;;;4.83;;
1467;SDS011;727;48.892;9.544;2023-08-12T15:41:04;4.20;;;3.80;;
1467;SDS011;727;48.892;9.544;2023-08-12T15:43:38;4.97;;;3.47;;
1467;SDS011;727;48.892;9.544;2023-08-12T15:46:05;7.00;;;3.43;;
1467;SDS011;727;48.892;9.544;2023-08-12T15:48:32;3.80;;;3.50;;
1467;SDS011;727;48.892;9.544;2023-08-12T15:50:59;3.80;;;3.50;;